createdAt,value
2023-04-02T00:00:49.061Z,0.00
2023-04-02T00:01:49.097Z,0.00
2023-04-02T00:02:50.066Z,0.00
2023-04-02T00:03:49.048Z,0.00
2023-04-02T00:04:49.070Z,0.00
2023-04-02T00:05:49.012Z,0.00
2023-04-02T00:06:48.982Z,0.00
2023-04-02T00:07:49.896Z,0.00
2023-04-02T00:08:49.078Z,0.00
2023-04-02T00:09:48.984Z,0.00
2023-04-02T00:10:48.925Z,0.00
2023-04-02T00:11:48.935Z,0.00
2023-04-02T00:12:48.909Z,0.00
2023-04-02T00:13:49.831Z,0.00
2023-04-02T00:14:48.883Z,0.00
2023-04-02T00:15:48.893Z,0.00
2023-04-02T00:16:48.885Z,0.00
2023-04-02T00:17:48.858Z,0.00
2023-04-02T00:18:48.855Z,0.00
2023-04-02T00:19:49.806Z,0.00
2023-04-02T00:20:48.804Z,0.00
2023-04-02T00:21:48.827Z,0.00
2023-04-02T00:22:48.773Z,0.00
2023-04-02T00:23:48.775Z,0.00
2023-04-02T00:24:48.745Z,0.00
2023-04-02T00:25:49.730Z,0.00
2023-04-02T00:26:48.799Z,0.00
2023-04-02T00:27:48.727Z,0.00
2023-04-02T00:28:48.750Z,0.00
2023-04-02T00:29:48.785Z,0.00
2023-04-02T00:30:48.687Z,0.00
2023-04-02T00:31:49.758Z,0.00
2023-04-02T00:32:48.685Z,0.00
2023-04-02T00:33:48.690Z,0.00
2023-04-02T00:34:48.690Z,0.00
2023-04-02T00:35:48.699Z,0.00
2023-04-02T00:36:49.607Z,0.00
2023-04-02T00:37:48.564Z,0.00
2023-04-02T00:38:48.881Z,0.00
2023-04-02T00:39:48.599Z,0.00
2023-04-02T00:40:48.564Z,0.00
2023-04-02T00:41:49.560Z,0.00
2023-04-02T00:42:48.508Z,0.00
2023-04-02T00:43:48.512Z,0.00
2023-04-02T00:44:48.483Z,0.00
2023-04-02T00:45:48.670Z,0.00
2023-04-02T00:46:49.474Z,0.00
2023-04-02T00:47:48.489Z,0.00
2023-04-02T00:48:48.476Z,0.00
2023-04-02T00:49:48.436Z,0.00
2023-04-02T00:50:48.429Z,0.00
2023-04-02T00:51:48.412Z,0.00
2023-04-02T00:52:49.406Z,0.00
2023-04-02T00:53:48.385Z,0.00
2023-04-02T00:54:48.375Z,0.00
2023-04-02T00:55:48.382Z,0.00
2023-04-02T00:56:48.389Z,0.00
2023-04-02T00:57:48.334Z,0.00
2023-04-02T00:58:49.273Z,0.00
2023-04-02T00:59:48.372Z,0.00
2023-04-02T01:00:48.309Z,0.00
2023-04-02T01:01:48.373Z,0.00
2023-04-02T01:02:48.327Z,0.00
2023-04-02T01:03:49.194Z,0.00
2023-04-02T01:04:48.246Z,0.00
2023-04-02T01:05:48.290Z,0.00
2023-04-02T01:06:48.311Z,0.00
2023-04-02T01:07:48.208Z,0.00
2023-04-02T01:08:48.292Z,0.00
2023-04-02T01:09:49.131Z,0.00
2023-04-02T01:10:48.175Z,0.00
2023-04-02T01:11:48.187Z,0.00
2023-04-02T01:12:48.186Z,0.00
2023-04-02T01:13:48.148Z,0.00
2023-04-02T01:14:49.041Z,0.00
2023-04-02T01:15:48.207Z,0.00
2023-04-02T01:16:48.143Z,0.00
2023-04-02T01:17:48.162Z,0.00
2023-04-02T01:18:48.072Z,0.00
2023-04-02T01:19:48.747Z,0.00
2023-04-02T01:20:48.976Z,0.00
2023-04-02T01:21:48.044Z,0.00
2023-04-02T01:22:48.089Z,0.00
2023-04-02T01:23:48.173Z,0.00
2023-04-02T01:24:47.995Z,0.00
2023-04-02T01:25:48.931Z,0.00
2023-04-02T01:26:48.001Z,0.00
2023-04-02T01:27:47.968Z,0.00
2023-04-02T01:28:47.915Z,0.00
2023-04-02T01:29:47.955Z,0.00
2023-04-02T01:30:47.913Z,0.00
2023-04-02T01:31:49.006Z,0.00
2023-04-02T01:32:47.932Z,0.00
2023-04-02T01:33:47.915Z,0.00
2023-04-02T01:34:47.860Z,0.00
2023-04-02T01:35:47.882Z,0.00
2023-04-02T01:36:48.761Z,0.00
2023-04-02T01:37:47.917Z,0.00
2023-04-02T01:38:47.812Z,0.00
2023-04-02T01:39:47.761Z,0.00
2023-04-02T01:40:47.785Z,0.00
2023-04-02T01:41:47.767Z,0.00
2023-04-02T01:42:48.667Z,0.00
2023-04-02T01:43:47.773Z,0.00
2023-04-02T01:44:47.773Z,0.00
2023-04-02T01:45:47.726Z,0.00
2023-04-02T01:46:47.813Z,0.00
2023-04-02T01:47:48.651Z,0.00
2023-04-02T01:48:47.722Z,0.00
2023-04-02T01:49:47.704Z,0.00
2023-04-02T01:50:47.680Z,0.00
2023-04-02T01:51:47.628Z,0.00
2023-04-02T01:52:47.614Z,0.00
2023-04-02T01:53:48.551Z,0.00
2023-04-02T01:54:47.629Z,0.00
2023-04-02T01:55:47.572Z,0.00
2023-04-02T01:56:47.583Z,0.00
2023-04-02T01:57:47.574Z,0.00
2023-04-02T01:58:47.555Z,0.00
2023-04-02T01:59:48.486Z,0.00
2023-04-02T02:00:47.623Z,0.00
2023-04-02T02:01:47.536Z,0.00
2023-04-02T02:02:47.514Z,0.00
2023-04-02T02:03:47.545Z,0.00
2023-04-02T02:04:47.498Z,0.00
2023-04-02T02:05:48.446Z,0.00
2023-04-02T02:06:47.449Z,0.00
2023-04-02T02:07:47.453Z,0.00
2023-04-02T02:08:47.445Z,0.00
2023-04-02T02:09:47.427Z,0.00
2023-04-02T02:10:47.445Z,0.00
2023-04-02T02:11:48.332Z,0.00
2023-04-02T02:12:47.394Z,0.00
2023-04-02T02:13:47.383Z,0.00
2023-04-02T02:14:47.378Z,0.00
2023-04-02T02:15:47.369Z,0.00
2023-04-02T02:16:47.370Z,0.00
2023-04-02T02:17:48.243Z,0.00
2023-04-02T02:18:47.313Z,0.00
2023-04-02T02:19:47.311Z,0.00
2023-04-02T02:20:47.288Z,0.00
2023-04-02T02:21:47.248Z,0.00
2023-04-02T02:22:47.255Z,0.00
2023-04-02T02:23:48.163Z,0.00
2023-04-02T02:24:47.221Z,0.00
2023-04-02T02:25:47.225Z,0.00
2023-04-02T02:26:47.214Z,0.00
2023-04-02T02:27:47.217Z,0.00
2023-04-02T02:28:47.198Z,0.00
2023-04-02T02:29:48.081Z,0.00
2023-04-02T02:30:47.221Z,0.00
2023-04-02T02:31:47.150Z,0.00
2023-04-02T02:32:47.165Z,0.00
2023-04-02T02:33:47.119Z,0.00
2023-04-02T02:34:48.095Z,0.00
2023-04-02T02:35:47.135Z,0.00
2023-04-02T02:36:47.110Z,0.00
2023-04-02T02:37:47.043Z,0.00
2023-04-02T02:38:47.030Z,0.00
2023-04-02T02:39:47.049Z,0.00
2023-04-02T02:40:47.955Z,0.00
2023-04-02T02:41:47.020Z,0.00
2023-04-02T02:42:47.053Z,0.00
2023-04-02T02:43:47.119Z,0.00
2023-04-02T02:44:46.953Z,0.00
2023-04-02T02:45:47.044Z,0.00
2023-04-02T02:46:47.902Z,0.00
2023-04-02T02:47:46.925Z,0.00
2023-04-02T02:48:46.950Z,0.00
2023-04-02T02:49:46.901Z,0.00
2023-04-02T02:50:46.928Z,0.00
2023-04-02T02:51:46.901Z,0.00
2023-04-02T02:52:47.861Z,0.00
2023-04-02T02:53:47.820Z,0.00
2023-04-02T02:54:46.861Z,0.00
2023-04-02T02:55:46.886Z,0.00
2023-04-02T02:56:46.880Z,0.00
2023-04-02T02:57:46.827Z,0.00
2023-04-02T02:58:47.723Z,0.00
2023-04-02T02:59:46.794Z,0.00
2023-04-02T03:00:46.773Z,0.00
2023-04-02T03:01:46.835Z,0.00
2023-04-02T03:02:46.896Z,0.00
2023-04-02T03:03:46.984Z,0.00
2023-04-02T03:04:47.622Z,0.00
2023-04-02T03:05:46.720Z,0.00
2023-04-02T03:06:46.683Z,0.00
2023-04-02T03:07:46.709Z,0.00
2023-04-02T03:08:46.649Z,0.00
2023-04-02T03:09:46.649Z,0.00
2023-04-02T03:10:47.615Z,0.00
2023-04-02T03:11:46.639Z,0.00
2023-04-02T03:12:46.620Z,0.00
2023-04-02T03:13:46.609Z,0.00
2023-04-02T03:14:46.614Z,0.00
2023-04-02T03:15:47.543Z,0.00
2023-04-02T03:16:46.575Z,0.00
2023-04-02T03:17:46.601Z,0.00
2023-04-02T03:18:46.543Z,0.00
2023-04-02T03:19:46.563Z,0.00
2023-04-02T03:20:47.420Z,0.00
2023-04-02T03:21:46.499Z,0.00
2023-04-02T03:22:46.473Z,0.00
2023-04-02T03:23:46.469Z,0.00
2023-04-02T03:24:46.492Z,0.00
2023-04-02T03:25:46.453Z,0.00
2023-04-02T03:26:47.374Z,0.00
2023-04-02T03:27:46.433Z,0.00
2023-04-02T03:28:46.400Z,0.00
2023-04-02T03:29:46.418Z,0.00
2023-04-02T03:30:46.385Z,0.00
2023-04-02T03:31:47.467Z,0.00
2023-04-02T03:32:46.431Z,0.00
2023-04-02T03:33:46.381Z,0.00
2023-04-02T03:34:46.313Z,0.00
2023-04-02T03:35:46.338Z,0.00
2023-04-02T03:36:46.303Z,0.00
2023-04-02T03:37:47.270Z,0.00
2023-04-02T03:38:46.286Z,0.00
2023-04-02T03:39:46.256Z,0.00
2023-04-02T03:40:46.277Z,0.00
2023-04-02T03:41:46.269Z,0.00
2023-04-02T03:42:46.265Z,0.00
2023-04-02T03:43:47.152Z,0.00
2023-04-02T03:44:46.192Z,0.00
2023-04-02T03:45:46.224Z,0.00
2023-04-02T03:46:46.198Z,0.00
2023-04-02T03:47:46.212Z,0.00
2023-04-02T03:48:47.093Z,0.00
2023-04-02T03:49:46.124Z,0.00
2023-04-02T03:50:46.152Z,0.00
2023-04-02T03:51:46.114Z,0.00
2023-04-02T03:52:46.100Z,0.00
2023-04-02T03:53:46.100Z,0.00
2023-04-02T03:54:53.943Z,0.00
2023-04-02T03:55:47.602Z,0.00
2023-04-02T03:56:46.035Z,0.00
2023-04-02T03:57:46.062Z,0.00
2023-04-02T03:58:46.037Z,0.00
2023-04-02T03:59:47.318Z,0.00
2023-04-02T04:00:46.969Z,0.00
2023-04-02T04:01:46.005Z,0.00
2023-04-02T04:02:46.014Z,0.00
2023-04-02T04:03:46.008Z,0.00
2023-04-02T04:04:46.042Z,0.00
2023-04-02T04:05:46.845Z,0.00
2023-04-02T04:06:45.904Z,0.00
2023-04-02T04:07:45.934Z,0.00
2023-04-02T04:08:45.891Z,0.00
2023-04-02T04:09:45.871Z,0.00
2023-04-02T04:10:45.893Z,0.00
2023-04-02T04:11:46.841Z,0.00
2023-04-02T04:12:45.870Z,0.00
2023-04-02T04:13:45.836Z,0.00
2023-04-02T04:14:45.842Z,0.00
2023-04-02T04:15:45.800Z,4.00
2023-04-02T04:16:46.765Z,0.00
2023-04-02T04:17:45.839Z,0.00
2023-04-02T04:18:45.777Z,0.00
2023-04-02T04:19:45.836Z,4.00
2023-04-02T04:20:45.730Z,4.00
2023-04-02T04:21:45.735Z,0.00
2023-04-02T04:22:46.662Z,4.00
2023-04-02T04:23:45.746Z,4.00
2023-04-02T04:24:45.725Z,4.00
2023-04-02T04:25:45.673Z,4.00
2023-04-02T04:26:45.715Z,8.00
2023-04-02T04:27:46.570Z,4.00
2023-04-02T04:28:45.657Z,8.00
2023-04-02T04:29:45.674Z,8.00
2023-04-02T04:30:45.721Z,12.00
2023-04-02T04:31:45.619Z,16.00
2023-04-02T04:32:45.615Z,12.00
2023-04-02T04:33:46.580Z,16.00
2023-04-02T04:34:45.583Z,20.00
2023-04-02T04:35:45.664Z,20.00
2023-04-02T04:36:45.596Z,24.00
2023-04-02T04:37:45.943Z,24.00
2023-04-02T04:38:46.612Z,28.00
2023-04-02T04:39:45.606Z,32.00
2023-04-02T04:40:45.491Z,36.00
2023-04-02T04:41:45.481Z,40.00
2023-04-02T04:42:45.470Z,44.00
2023-04-02T04:43:45.465Z,44.00
2023-04-02T04:44:46.367Z,48.00
2023-04-02T04:45:45.539Z,52.00
2023-04-02T04:46:45.419Z,60.00
2023-04-02T04:47:45.477Z,60.00
2023-04-02T04:48:45.366Z,60.00
2023-04-02T04:49:46.328Z,68.00
2023-04-02T04:50:45.415Z,68.00
2023-04-02T04:51:45.366Z,84.00
2023-04-02T04:52:45.342Z,92.00
2023-04-02T04:53:45.369Z,96.00
2023-04-02T04:54:45.300Z,96.00
2023-04-02T04:55:46.306Z,96.00
2023-04-02T04:56:45.302Z,104.00
2023-04-02T04:57:45.285Z,120.00
2023-04-02T04:58:45.293Z,128.00
2023-04-02T04:59:45.247Z,124.00
2023-04-02T05:00:45.226Z,128.00
2023-04-02T05:01:46.172Z,140.00
2023-04-02T05:02:45.249Z,148.00
2023-04-02T05:03:45.208Z,168.00
2023-04-02T05:04:45.246Z,164.00
2023-04-02T05:05:45.160Z,152.00
2023-04-02T05:06:46.087Z,176.00
2023-04-02T05:07:45.189Z,188.00
2023-04-02T05:08:45.141Z,204.00
2023-04-02T05:09:45.154Z,200.00
2023-04-02T05:10:45.132Z,196.00
2023-04-02T05:11:46.075Z,224.00
2023-04-02T05:12:45.121Z,228.00
2023-04-02T05:13:45.062Z,200.00
2023-04-02T05:14:45.082Z,220.00
2023-04-02T05:15:45.052Z,248.00
2023-04-02T05:16:45.984Z,244.00
2023-04-02T05:17:45.058Z,244.00
2023-04-02T05:18:45.010Z,236.00
2023-04-02T05:19:45.047Z,220.00
2023-04-02T05:20:45.031Z,272.00
2023-04-02T05:21:45.921Z,284.00
2023-04-02T05:22:44.986Z,340.00
2023-04-02T05:23:45.023Z,380.00
2023-04-02T05:24:44.937Z,424.00
2023-04-02T05:25:44.927Z,444.00
2023-04-02T05:26:45.872Z,452.00
2023-04-02T05:27:44.875Z,476.00
2023-04-02T05:28:44.903Z,444.00
2023-04-02T05:29:44.892Z,492.00
2023-04-02T05:30:44.877Z,524.00
2023-04-02T05:31:44.946Z,492.00
2023-04-02T05:32:45.807Z,476.00
2023-04-02T05:33:44.879Z,552.00
2023-04-02T05:34:44.929Z,588.00
2023-04-02T05:35:44.821Z,648.00
2023-04-02T05:36:45.738Z,640.00
2023-04-02T05:37:45.752Z,632.00
2023-04-02T05:38:45.777Z,656.00
2023-04-02T05:39:44.740Z,724.00
2023-04-02T05:40:44.726Z,712.00
2023-04-02T05:41:44.764Z,684.00
2023-04-02T05:42:44.693Z,708.00
2023-04-02T05:43:45.633Z,708.00
2023-04-02T05:44:44.664Z,804.00
2023-04-02T05:45:44.708Z,776.00
2023-04-02T05:46:44.757Z,848.00
2023-04-02T05:47:44.836Z,860.00
2023-04-02T05:48:45.654Z,828.00
2023-04-02T05:49:44.629Z,724.00
2023-04-02T05:50:44.612Z,664.00
2023-04-02T05:51:44.681Z,644.00
2023-04-02T05:52:44.581Z,640.00
2023-04-02T05:53:45.508Z,616.00
2023-04-02T05:54:44.588Z,612.00
2023-04-02T05:55:44.545Z,644.00
2023-04-02T05:56:44.549Z,704.00
2023-04-02T05:57:52.833Z,680.00
2023-04-02T05:58:46.097Z,732.00
2023-04-02T05:59:45.456Z,736.00
2023-04-02T06:00:44.493Z,724.00
2023-04-02T06:01:44.521Z,708.00
2023-04-02T06:02:44.482Z,716.00
2023-04-02T06:03:44.512Z,712.00
2023-04-02T06:04:44.453Z,848.00
2023-04-02T06:05:45.342Z,1156.00
2023-04-02T06:06:44.399Z,1192.00
2023-04-02T06:07:44.374Z,1132.00
2023-04-02T06:08:44.472Z,1020.00
2023-04-02T06:09:44.365Z,900.00
2023-04-02T06:10:45.220Z,896.00
2023-04-02T06:11:45.324Z,852.00
2023-04-02T06:12:44.367Z,812.00
2023-04-02T06:13:44.337Z,1276.00
2023-04-02T06:14:45.232Z,1424.00
2023-04-02T06:15:46.523Z,1444.00
2023-04-02T06:16:44.361Z,1296.00
2023-04-02T06:17:45.319Z,1300.00
2023-04-02T06:18:44.262Z,1228.00
2023-04-02T06:19:44.216Z,1088.00
2023-04-02T06:20:44.269Z,1048.00
2023-04-02T06:21:44.221Z,992.00
2023-04-02T06:22:44.196Z,892.00
2023-04-02T06:23:45.118Z,932.00
2023-04-02T06:24:44.234Z,1112.00
2023-04-02T06:25:44.142Z,1568.00
2023-04-02T06:26:44.170Z,1868.00
2023-04-02T06:27:44.163Z,2356.00
2023-04-02T06:28:44.166Z,3004.00
2023-04-02T06:29:45.042Z,2664.00
2023-04-02T06:30:44.147Z,2580.00
2023-04-02T06:31:44.131Z,2864.00
2023-04-02T06:32:44.127Z,2812.00
2023-04-02T06:33:44.045Z,2472.00
2023-04-02T06:34:44.086Z,2316.00
2023-04-02T06:35:45.024Z,2356.00
2023-04-02T06:36:44.019Z,2344.00
2023-04-02T06:37:43.991Z,3440.00
2023-04-02T06:38:44.005Z,2444.00
2023-04-02T06:39:44.017Z,3020.00
2023-04-02T06:40:44.879Z,3856.00
2023-04-02T06:41:43.941Z,4080.00
2023-04-02T06:42:43.971Z,3884.00
2023-04-02T06:43:43.915Z,3744.00
2023-04-02T06:44:43.987Z,3912.00
2023-04-02T06:45:43.957Z,3648.00
2023-04-02T06:46:44.890Z,3468.00
2023-04-02T06:47:43.958Z,3696.00
2023-04-02T06:48:43.898Z,4880.00
2023-04-02T06:49:43.866Z,6728.00
2023-04-02T06:50:43.858Z,5524.00
2023-04-02T06:51:43.833Z,5012.00
2023-04-02T06:52:44.780Z,4672.00
2023-04-02T06:53:43.835Z,5020.00
2023-04-02T06:54:43.831Z,4328.00
2023-04-02T06:55:43.801Z,4452.00
2023-04-02T06:56:43.779Z,4300.00
2023-04-02T06:57:44.726Z,4056.00
2023-04-02T06:58:43.778Z,3612.00
2023-04-02T06:59:43.725Z,3300.00
2023-04-02T07:00:43.730Z,3412.00
2023-04-02T07:01:43.789Z,3192.00
2023-04-02T07:02:44.678Z,3112.00
2023-04-02T07:03:43.680Z,3176.00
2023-04-02T07:04:43.720Z,3296.00
2023-04-02T07:05:43.675Z,3364.00
2023-04-02T07:06:43.675Z,3492.00
2023-04-02T07:07:44.655Z,4112.00
2023-04-02T07:08:43.609Z,4140.00
2023-04-02T07:09:43.900Z,4288.00
2023-04-02T07:10:43.622Z,4520.00
2023-04-02T07:11:43.632Z,3796.00
2023-04-02T07:12:43.544Z,3560.00
2023-04-02T07:13:44.566Z,4036.00
2023-04-02T07:14:43.539Z,4380.00
2023-04-02T07:15:43.580Z,3340.00
2023-04-02T07:16:43.541Z,3372.00
2023-04-02T07:17:43.570Z,3900.00
2023-04-02T07:18:44.474Z,4168.00
2023-04-02T07:19:43.553Z,4368.00
2023-04-02T07:20:43.480Z,4692.00
2023-04-02T07:21:43.475Z,4852.00
2023-04-02T07:22:43.465Z,4656.00
2023-04-02T07:23:44.453Z,4384.00
2023-04-02T07:24:43.540Z,4360.00
2023-04-02T07:25:43.434Z,4760.00
2023-04-02T07:26:43.505Z,4868.00
2023-04-02T07:27:43.443Z,4628.00
2023-04-02T07:28:44.398Z,5040.00
2023-04-02T07:29:43.363Z,5876.00
2023-04-02T07:30:43.354Z,5216.00
2023-04-02T07:31:43.413Z,5008.00
2023-04-02T07:32:43.361Z,5032.00
2023-04-02T07:33:44.261Z,5180.00
2023-04-02T07:34:43.299Z,5568.00
2023-04-02T07:35:43.337Z,5928.00
2023-04-02T07:36:43.262Z,6060.00
2023-04-02T07:37:43.252Z,5784.00
2023-04-02T07:38:43.268Z,4764.00
2023-04-02T07:39:44.268Z,4276.00
2023-04-02T07:40:43.229Z,4920.00
2023-04-02T07:41:43.188Z,5120.00
2023-04-02T07:42:43.213Z,4532.00
2023-04-02T07:43:43.203Z,4804.00
2023-04-02T07:44:44.093Z,6060.00
2023-04-02T07:45:43.160Z,6232.00
2023-04-02T07:46:43.199Z,9404.00
2023-04-02T07:47:43.172Z,5500.00
2023-04-02T07:48:43.141Z,5596.00
2023-04-02T07:49:43.081Z,5236.00
2023-04-02T07:50:44.077Z,5204.00
2023-04-02T07:51:43.082Z,5512.00
2023-04-02T07:52:43.098Z,5324.00
2023-04-02T07:53:43.063Z,5468.00
2023-04-02T07:54:43.054Z,5656.00
2023-04-02T07:55:43.148Z,5448.00
2023-04-02T07:56:43.940Z,5544.00
2023-04-02T07:57:45.645Z,5496.00
2023-04-02T07:58:43.000Z,5400.00
2023-04-02T07:59:43.917Z,5548.00
2023-04-02T08:00:42.966Z,5980.00
2023-04-02T08:01:43.204Z,6624.00
2023-04-02T08:02:43.956Z,6620.00
2023-04-02T08:03:43.105Z,6728.00
2023-04-02T08:04:42.897Z,6684.00
2023-04-02T08:05:42.942Z,6292.00
2023-04-02T08:06:42.867Z,5836.00
2023-04-02T08:07:43.808Z,6008.00
2023-04-02T08:08:42.873Z,5704.00
2023-04-02T08:09:42.834Z,5760.00
2023-04-02T08:10:42.870Z,5616.00
2023-04-02T08:11:42.827Z,5752.00
2023-04-02T08:12:42.820Z,6084.00
2023-04-02T08:13:43.798Z,5984.00
2023-04-02T08:14:42.792Z,5980.00
2023-04-02T08:15:42.773Z,6684.00
2023-04-02T08:16:42.806Z,6928.00
2023-04-02T08:17:42.767Z,6532.00
2023-04-02T08:18:42.739Z,6188.00
2023-04-02T08:19:54.060Z,6000.00
2023-04-02T08:20:44.345Z,5656.00
2023-04-02T08:21:42.681Z,6224.00
2023-04-02T08:22:42.684Z,6872.00
2023-04-02T08:23:42.683Z,6712.00
2023-04-02T08:24:43.671Z,6716.00
2023-04-02T08:25:42.651Z,6380.00
2023-04-02T08:26:43.956Z,6428.00
2023-04-02T08:27:42.638Z,6612.00
2023-04-02T08:28:42.592Z,5816.00
2023-04-02T08:29:42.590Z,5728.00
2023-04-02T08:30:43.539Z,5816.00
2023-04-02T08:31:42.588Z,5076.00
2023-04-02T08:32:42.681Z,4736.00
2023-04-02T08:33:42.537Z,4956.00
2023-04-02T08:34:42.521Z,4868.00
2023-04-02T08:35:43.469Z,5628.00
2023-04-02T08:36:42.532Z,6192.00
2023-04-02T08:37:42.474Z,6120.00
2023-04-02T08:38:42.489Z,5928.00
2023-04-02T08:39:42.493Z,6000.00
2023-04-02T08:40:42.502Z,6140.00
2023-04-02T08:41:43.392Z,5716.00
2023-04-02T08:42:42.438Z,5928.00
2023-04-02T08:43:42.397Z,6336.00
2023-04-02T08:44:42.410Z,7128.00
2023-04-02T08:45:42.558Z,6720.00
2023-04-02T08:46:42.342Z,5716.00
2023-04-02T08:47:43.302Z,5308.00
2023-04-02T08:48:42.773Z,5184.00
2023-04-02T08:49:42.313Z,5604.00
2023-04-02T08:50:42.347Z,5768.00
2023-04-02T08:51:42.272Z,5180.00
2023-04-02T08:52:43.192Z,4860.00
2023-04-02T08:53:42.287Z,5032.00
2023-04-02T08:54:42.265Z,4940.00
2023-04-02T08:55:42.216Z,5340.00
2023-04-02T08:56:42.222Z,6412.00
2023-04-02T08:57:42.245Z,6336.00
2023-04-02T08:58:43.145Z,6740.00
2023-04-02T08:59:42.198Z,7008.00
2023-04-02T09:00:42.177Z,6864.00
2023-04-02T09:01:42.269Z,6404.00
2023-04-02T09:02:42.148Z,6236.00
2023-04-02T09:03:42.110Z,6156.00
2023-04-02T09:04:43.113Z,6504.00
2023-04-02T09:05:42.088Z,7324.00
2023-04-02T09:06:42.080Z,6792.00
2023-04-02T09:07:42.119Z,6884.00
2023-04-02T09:08:42.068Z,7412.00
2023-04-02T09:09:42.057Z,4652.00
2023-04-02T09:10:43.004Z,9252.00
2023-04-02T09:11:42.019Z,6676.00
2023-04-02T09:12:42.380Z,10316.00
2023-04-02T09:13:41.997Z,9816.00
2023-04-02T09:14:41.991Z,9976.00
2023-04-02T09:15:42.000Z,9784.00
2023-04-02T09:16:42.888Z,9684.00
2023-04-02T09:17:53.194Z,9696.00
2023-04-02T09:18:43.513Z,9688.00
2023-04-02T09:19:41.930Z,9856.00
2023-04-02T09:20:41.909Z,9892.00
2023-04-02T09:21:42.850Z,9932.00
2023-04-02T09:22:41.887Z,10008.00
2023-04-02T09:23:41.883Z,10204.00
2023-04-02T09:24:41.870Z,10108.00
2023-04-02T09:25:42.211Z,10924.00
2023-04-02T09:26:42.836Z,10472.00
2023-04-02T09:27:42.610Z,10336.00
2023-04-02T09:28:41.815Z,10312.00
2023-04-02T09:29:41.820Z,10296.00
2023-04-02T09:30:41.811Z,10496.00
2023-04-02T09:31:42.758Z,11608.00
2023-04-02T09:32:41.810Z,13424.00
2023-04-02T09:33:41.769Z,11756.00
2023-04-02T09:34:41.760Z,10720.00
2023-04-02T09:35:41.848Z,10872.00
2023-04-02T09:36:42.673Z,10976.00
2023-04-02T09:37:41.685Z,11324.00
2023-04-02T09:38:41.686Z,11004.00
2023-04-02T09:39:43.150Z,11388.00
2023-04-02T09:40:41.654Z,11460.00
2023-04-02T09:41:43.804Z,11052.00
2023-04-02T09:42:41.650Z,11060.00
2023-04-02T09:43:42.523Z,11068.00
2023-04-02T09:44:41.648Z,11212.00
2023-04-02T09:45:41.604Z,12500.00
2023-04-02T09:46:41.619Z,12692.00
2023-04-02T09:47:42.649Z,11656.00
2023-04-02T09:48:41.575Z,11428.00
2023-04-02T09:49:41.593Z,11588.00
2023-04-02T09:50:42.422Z,11792.00
2023-04-02T09:51:41.524Z,12452.00
2023-04-02T09:52:41.527Z,12968.00
2023-04-02T09:53:42.750Z,15904.00
2023-04-02T09:54:41.538Z,15616.00
2023-04-02T09:55:41.555Z,15456.00
2023-04-02T09:56:41.462Z,10288.00
2023-04-02T09:57:41.471Z,16352.00
2023-04-02T09:58:42.364Z,17984.00
2023-04-02T09:59:41.446Z,16576.00
2023-04-02T10:00:42.192Z,10980.00
2023-04-02T10:01:41.432Z,12508.00
2023-04-02T10:02:41.427Z,15136.00
2023-04-02T10:03:42.328Z,18432.00
2023-04-02T10:04:41.451Z,19936.00
2023-04-02T10:05:41.711Z,23584.00
2023-04-02T10:06:41.308Z,23488.00
2023-04-02T10:07:41.376Z,24608.00
2023-04-02T10:08:41.311Z,23328.00
2023-04-02T10:09:42.255Z,14572.00
2023-04-02T10:10:41.281Z,12900.00
2023-04-02T10:12:41.274Z,16928.00
2023-04-02T10:13:41.245Z,12084.00
2023-04-02T10:14:41.210Z,10136.00
2023-04-02T10:15:42.159Z,9060.00
2023-04-02T10:16:41.218Z,9868.00
2023-04-02T10:17:41.242Z,9688.00
2023-04-02T10:18:41.198Z,8816.00
2023-04-02T10:19:41.179Z,8496.00
2023-04-02T10:20:51.030Z,7840.00
2023-04-02T10:21:42.696Z,7228.00
2023-04-02T10:22:41.148Z,6608.00
2023-04-02T10:23:41.157Z,6260.00
2023-04-02T10:24:41.091Z,7680.00
2023-04-02T10:25:42.068Z,10532.00
2023-04-02T10:26:41.087Z,9892.00
2023-04-02T10:27:41.066Z,8500.00
2023-04-02T10:28:41.052Z,8988.00
2023-04-02T10:29:41.089Z,8952.00
2023-04-02T10:30:41.134Z,8768.00
2023-04-02T10:31:41.982Z,8420.00
2023-04-02T10:32:41.067Z,8936.00
2023-04-02T10:33:40.991Z,10604.00
2023-04-02T10:34:42.866Z,12192.00
2023-04-02T10:35:41.022Z,12648.00
2023-04-02T10:36:41.894Z,13660.00
2023-04-02T10:37:40.960Z,10292.00
2023-04-02T10:38:40.927Z,7116.00
2023-04-02T10:39:41.013Z,17856.00
2023-04-02T10:40:40.911Z,14432.00
2023-04-02T10:41:40.917Z,25824.00
2023-04-02T10:42:41.816Z,25504.00
2023-04-02T10:43:40.855Z,17952.00
2023-04-02T10:44:40.866Z,14364.00
2023-04-02T10:45:40.845Z,27104.00
2023-04-02T10:46:40.915Z,21568.00
2023-04-02T10:47:40.884Z,17920.00
2023-04-02T10:48:41.771Z,22176.00
2023-04-02T10:49:40.875Z,19648.00
2023-04-02T10:50:40.790Z,20608.00
2023-04-02T10:51:40.821Z,22656.00
2023-04-02T10:52:40.839Z,24544.00
2023-04-02T10:53:41.687Z,19296.00
2023-04-02T10:54:40.748Z,29600.00
2023-04-02T10:55:40.719Z,19616.00
2023-04-02T10:56:49.940Z,28928.00
2023-04-02T10:57:43.272Z,19328.00
2023-04-02T10:58:42.959Z,26688.00
2023-04-02T10:59:40.761Z,18176.00
2023-04-02T11:00:40.645Z,23648.00
2023-04-02T11:01:40.724Z,26528.00
2023-04-02T11:02:40.845Z,19392.00
2023-04-02T11:03:41.762Z,15616.00
2023-04-02T11:05:39.566Z,15776.00
2023-04-02T11:06:39.512Z,14396.00
2023-04-02T11:07:39.548Z,11632.00
2023-04-02T11:08:39.495Z,9612.00
2023-04-02T11:09:41.424Z,8936.00
2023-04-02T11:10:39.514Z,8616.00
2023-04-02T11:11:39.605Z,8652.00
2023-04-02T11:12:41.698Z,9004.00
2023-04-02T11:13:39.514Z,9940.00
2023-04-02T11:14:40.348Z,9488.00
2023-04-02T11:15:39.536Z,8376.00
2023-04-02T11:16:43.956Z,7276.00
2023-04-02T11:17:40.959Z,6676.00
2023-04-02T11:18:39.391Z,6640.00
2023-04-02T11:19:39.404Z,7188.00
2023-04-02T11:20:39.357Z,7860.00
2023-04-02T11:21:51.134Z,7960.00
2023-04-02T11:22:40.853Z,7756.00
2023-04-02T11:23:39.324Z,7804.00
2023-04-02T11:24:39.289Z,8132.00
2023-04-02T11:25:40.282Z,8320.00
2023-04-02T11:26:39.324Z,8756.00
2023-04-02T11:27:39.232Z,9620.00
2023-04-02T11:28:39.283Z,10184.00
2023-04-02T11:29:39.253Z,10904.00
2023-04-02T11:30:39.285Z,11576.00
2023-04-02T11:31:40.204Z,14284.00
2023-04-02T11:32:39.515Z,14160.00
2023-04-02T11:33:41.954Z,11740.00
2023-04-02T11:34:39.172Z,8896.00
2023-04-02T11:35:39.549Z,23424.00
2023-04-02T11:36:40.100Z,11052.00
2023-04-02T11:37:39.203Z,12300.00
2023-04-02T11:38:39.115Z,15488.00
2023-04-02T11:39:39.121Z,16928.00
2023-04-02T11:40:39.078Z,17120.00
2023-04-02T11:41:40.091Z,20640.00
2023-04-02T11:42:39.095Z,25728.00
2023-04-02T11:43:39.267Z,19072.00
2023-04-02T11:44:39.060Z,18496.00
2023-04-02T11:45:50.125Z,17536.00
2023-04-02T11:46:40.546Z,16032.00
2023-04-02T11:47:40.050Z,14368.00
2023-04-02T11:48:38.992Z,13580.00
2023-04-02T11:49:38.988Z,13608.00
2023-04-02T11:50:39.054Z,12508.00
2023-04-02T11:51:38.964Z,13916.00
2023-04-02T11:52:39.911Z,15456.00
2023-04-02T11:53:38.972Z,30176.00
2023-04-02T11:54:38.923Z,18048.00
2023-04-02T11:55:39.172Z,36448.00
2023-04-02T11:56:38.860Z,22944.00
2023-04-02T11:57:38.947Z,19136.00
2023-04-02T11:58:39.775Z,24960.00
2023-04-02T11:59:38.853Z,22464.00
2023-04-02T12:00:38.801Z,20032.00
2023-04-02T12:01:38.903Z,15936.00
2023-04-02T12:02:38.939Z,17056.00
2023-04-02T12:03:38.781Z,18592.00
2023-04-02T12:04:39.694Z,19872.00
2023-04-02T12:05:38.825Z,18688.00
2023-04-02T12:06:38.769Z,14552.00
2023-04-02T12:07:38.770Z,13472.00
2023-04-02T12:08:47.518Z,12704.00
2023-04-02T12:09:41.122Z,12892.00
2023-04-02T12:10:38.709Z,13332.00
2023-04-02T12:11:38.679Z,13180.00
2023-04-02T12:12:38.652Z,10544.00
2023-04-02T12:13:38.643Z,9464.00
2023-04-02T12:14:39.619Z,8652.00
2023-04-02T12:15:38.662Z,7712.00
2023-04-02T12:16:38.649Z,7216.00
2023-04-02T12:17:38.638Z,7084.00
2023-04-02T12:18:38.648Z,7184.00
2023-04-02T12:19:39.508Z,7052.00
2023-04-02T12:20:38.550Z,7024.00
2023-04-02T12:21:38.546Z,8056.00
2023-04-02T12:22:40.214Z,9296.00
2023-04-02T12:23:38.545Z,10716.00
2023-04-02T12:24:39.439Z,12628.00
2023-04-02T12:25:44.341Z,15488.00
2023-04-02T12:26:38.565Z,13588.00
2023-04-02T12:27:38.496Z,12908.00
2023-04-02T12:28:38.457Z,10812.00
2023-04-02T12:29:38.437Z,9572.00
2023-04-02T12:30:39.391Z,10000.00
2023-04-02T12:31:38.439Z,11180.00